createdAt,value
2023-07-24T00:00:50.916Z,23.53
2023-07-24T00:03:19.715Z,22.30
2023-07-24T00:05:49.934Z,24.50
2023-07-24T00:08:18.647Z,22.70
2023-07-24T00:10:47.369Z,24.00
2023-07-24T00:13:16.174Z,21.67
2023-07-24T00:15:48.085Z,23.63
2023-07-24T00:18:16.965Z,21.90
2023-07-24T00:20:45.906Z,22.10
2023-07-24T00:23:16.167Z,21.53
2023-07-24T00:25:45.075Z,24.17
2023-07-24T00:28:13.977Z,22.57
2023-07-24T00:30:44.205Z,24.23
2023-07-24T00:33:27.800Z,22.10
2023-07-24T00:35:58.894Z,22.47
2023-07-24T00:38:29.421Z,21.83
2023-07-24T00:40:58.382Z,23.87
2023-07-24T00:43:46.082Z,22.97
2023-07-24T00:46:16.630Z,21.70
2023-07-24T00:48:45.591Z,21.73
2023-07-24T00:51:15.592Z,22.40
2023-07-24T00:54:05.388Z,20.83
2023-07-24T00:56:34.844Z,22.07
2023-07-24T00:59:03.698Z,22.43
2023-07-24T01:01:32.653Z,22.07
2023-07-24T01:04:01.729Z,21.70
2023-07-24T01:06:31.919Z,21.80
2023-07-24T01:09:07.132Z,21.23
2023-07-24T01:11:43.661Z,22.97
2023-07-24T01:14:21.316Z,19.30
2023-07-24T01:16:51.287Z,23.40
2023-07-24T01:19:34.762Z,21.57
2023-07-24T01:22:14.727Z,22.13
2023-07-24T01:25:00.418Z,22.20
2023-07-24T01:27:30.533Z,22.57
2023-07-24T01:29:59.210Z,23.67
2023-07-24T01:32:28.143Z,23.20
2023-07-24T01:34:57.210Z,22.93
2023-07-24T01:37:31.377Z,21.77
2023-07-24T01:40:03.244Z,23.50
2023-07-24T01:42:33.489Z,22.30
2023-07-24T01:45:02.408Z,22.43
2023-07-24T01:47:31.464Z,22.33
2023-07-24T01:50:02.247Z,23.93
2023-07-24T01:52:31.058Z,23.83
2023-07-24T01:54:59.948Z,20.53
2023-07-24T01:57:28.911Z,22.10
2023-07-24T01:59:59.063Z,22.90
2023-07-24T02:02:27.901Z,23.37
2023-07-24T02:04:57.238Z,22.03
2023-07-24T02:07:26.008Z,20.40
2023-07-24T02:09:55.034Z,23.27
2023-07-24T02:12:26.832Z,23.40
2023-07-24T02:14:56.471Z,22.50
2023-07-24T02:17:27.019Z,22.03
2023-07-24T02:19:55.902Z,23.30
2023-07-24T02:22:25.037Z,21.97
2023-07-24T02:24:53.910Z,22.67
2023-07-24T02:27:31.172Z,21.63
2023-07-24T02:30:04.237Z,22.87
2023-07-24T02:32:34.526Z,21.70
2023-07-24T02:35:03.442Z,24.33
2023-07-24T02:37:32.190Z,23.07
2023-07-24T02:40:01.019Z,22.97
2023-07-24T02:42:29.805Z,21.80
2023-07-24T02:44:58.439Z,21.87
2023-07-24T02:47:27.202Z,22.83
2023-07-24T02:49:57.264Z,23.87
2023-07-24T02:52:25.907Z,22.97
2023-07-24T02:54:55.297Z,23.30
2023-07-24T02:57:24.049Z,22.60
2023-07-24T03:00:02.814Z,21.73
2023-07-24T03:02:32.722Z,21.83
2023-07-24T03:05:02.828Z,23.93
2023-07-24T03:07:31.598Z,22.73
2023-07-24T03:10:00.746Z,21.83
2023-07-24T03:12:47.383Z,22.20
2023-07-24T03:15:16.089Z,22.13
2023-07-24T03:17:44.968Z,21.73
2023-07-24T03:20:20.159Z,22.87
2023-07-24T03:22:50.705Z,22.80
2023-07-24T03:25:19.567Z,20.93
2023-07-24T03:27:48.433Z,20.97
2023-07-24T03:30:17.368Z,22.83
2023-07-24T03:32:46.107Z,21.97
2023-07-24T03:35:16.271Z,22.17
2023-07-24T03:37:45.177Z,20.53
2023-07-24T03:40:14.973Z,23.73
2023-07-24T03:42:43.826Z,22.30
2023-07-24T03:45:12.679Z,22.20
2023-07-24T03:47:43.134Z,23.77
2023-07-24T03:50:12.226Z,23.33
2023-07-24T03:52:42.288Z,21.43
2023-07-24T03:55:11.784Z,21.90
2023-07-24T03:57:40.792Z,24.43
2023-07-24T04:00:10.803Z,21.97
2023-07-24T04:02:43.165Z,21.87
2023-07-24T04:05:13.210Z,21.77
2023-07-24T04:07:47.492Z,22.83
2023-07-24T04:10:16.370Z,20.90
2023-07-24T04:12:45.253Z,23.13
2023-07-24T04:15:14.194Z,22.67
2023-07-24T04:17:43.932Z,22.63
2023-07-24T04:20:13.227Z,24.10
2023-07-24T04:22:42.330Z,23.40
2023-07-24T04:25:12.864Z,22.43
2023-07-24T04:27:46.056Z,21.63
2023-07-24T04:30:14.842Z,23.30
2023-07-24T04:32:43.745Z,23.53
2023-07-24T04:35:12.564Z,21.37
2023-07-24T04:37:41.513Z,22.87
2023-07-24T04:40:12.922Z,22.67
2023-07-24T04:42:41.685Z,24.57
2023-07-24T04:45:11.518Z,24.50
2023-07-24T04:47:40.393Z,22.37
2023-07-24T04:50:09.765Z,23.50
2023-07-24T04:52:38.677Z,22.93
2023-07-24T04:55:08.646Z,25.63
2023-07-24T04:57:38.952Z,22.73
2023-07-24T05:00:09.172Z,22.30
2023-07-24T05:02:38.264Z,23.03
2023-07-24T05:05:08.230Z,25.83
2023-07-24T05:07:37.307Z,24.20
2023-07-24T05:10:07.613Z,23.63
2023-07-24T05:12:36.631Z,22.50
2023-07-24T05:15:10.907Z,24.07
2023-07-24T05:17:39.906Z,23.23
2023-07-24T05:20:10.292Z,22.93
2023-07-24T05:22:39.214Z,23.50
2023-07-24T05:25:08.758Z,23.30
2023-07-24T05:27:39.178Z,23.67
2023-07-24T05:30:12.342Z,23.97
2023-07-24T05:32:41.055Z,24.30
2023-07-24T05:35:10.493Z,24.33
2023-07-24T05:37:39.452Z,27.37
2023-07-24T05:40:09.517Z,24.97
2023-07-24T05:42:43.832Z,23.10
2023-07-24T05:45:16.999Z,24.67
2023-07-24T05:47:48.157Z,23.77
2023-07-24T05:50:18.781Z,22.57
2023-07-24T05:52:50.110Z,23.87
2023-07-24T05:55:19.045Z,24.23
2023-07-24T05:57:47.917Z,24.03
2023-07-24T06:00:19.133Z,25.03
2023-07-24T06:02:48.068Z,24.27
2023-07-24T06:05:17.083Z,23.87
2023-07-24T06:07:45.918Z,22.87
2023-07-24T06:10:18.056Z,25.90
2023-07-24T06:12:49.908Z,23.57
2023-07-24T06:15:24.989Z,23.63
2023-07-24T06:17:57.814Z,26.27
2023-07-24T06:20:28.502Z,25.67
2023-07-24T06:22:59.273Z,24.93
2023-07-24T06:25:28.243Z,24.73
2023-07-24T06:27:57.486Z,23.97
2023-07-24T06:30:28.105Z,26.83
2023-07-24T06:32:57.309Z,25.33
2023-07-24T06:35:29.292Z,25.70
2023-07-24T06:37:58.266Z,26.27
2023-07-24T06:40:27.433Z,25.47
2023-07-24T06:42:56.391Z,24.33
2023-07-24T06:45:25.303Z,24.97
2023-07-24T06:47:55.941Z,23.67
2023-07-24T06:50:25.135Z,24.77
2023-07-24T06:52:55.035Z,23.37
2023-07-24T06:55:24.023Z,22.73
2023-07-24T06:57:52.982Z,24.93
2023-07-24T07:00:21.978Z,24.00
2023-07-24T07:02:50.942Z,23.63
2023-07-24T07:05:21.164Z,24.03
2023-07-24T07:07:49.929Z,24.10
2023-07-24T07:10:19.028Z,25.33
2023-07-24T07:12:48.977Z,24.37
2023-07-24T07:15:17.920Z,26.97
2023-07-24T07:17:47.934Z,23.73
2023-07-24T07:20:16.988Z,25.50
2023-07-24T07:22:48.861Z,24.60
2023-07-24T07:25:17.894Z,25.93
2023-07-24T07:27:46.721Z,24.70
2023-07-24T07:30:15.714Z,25.43
2023-07-24T07:32:44.541Z,22.90
2023-07-24T07:35:16.320Z,26.53
2023-07-24T07:37:46.562Z,25.03
2023-07-24T07:40:15.396Z,25.50
2023-07-24T07:42:46.112Z,25.53
2023-07-24T07:45:15.071Z,27.77
2023-07-24T07:47:44.081Z,24.27
2023-07-24T07:50:12.989Z,26.23
2023-07-24T07:52:41.990Z,26.37
2023-07-24T07:55:12.461Z,42.30
2023-07-24T07:57:41.245Z,27.10
2023-07-24T08:00:10.896Z,27.47
2023-07-24T08:02:41.058Z,24.20
2023-07-24T08:05:18.138Z,26.93
2023-07-24T08:07:49.831Z,24.10
2023-07-24T08:10:21.471Z,25.80
2023-07-24T08:12:50.173Z,24.90
2023-07-24T08:15:19.269Z,25.70
2023-07-24T08:18:08.450Z,24.23
2023-07-24T08:20:38.901Z,25.47
2023-07-24T08:23:07.865Z,26.07
2023-07-24T08:25:38.312Z,24.30
2023-07-24T08:28:07.339Z,27.43
2023-07-24T08:30:37.125Z,25.00
2023-07-24T08:33:06.359Z,26.03
2023-07-24T08:35:35.184Z,25.40
2023-07-24T08:38:03.940Z,26.47
2023-07-24T08:40:32.679Z,24.97
2023-07-24T08:43:03.140Z,26.43
2023-07-24T08:45:32.933Z,24.60
2023-07-24T08:48:02.539Z,24.50
2023-07-24T08:50:32.581Z,26.40
2023-07-24T08:53:04.065Z,27.33
2023-07-24T08:55:33.339Z,25.83
2023-07-24T08:58:06.660Z,28.37
2023-07-24T09:00:35.501Z,28.57
2023-07-24T09:03:04.431Z,29.57
2023-07-24T09:05:33.306Z,28.97
2023-07-24T09:08:01.970Z,26.60
2023-07-24T09:10:32.206Z,27.20
2023-07-24T09:13:00.969Z,25.73
2023-07-24T09:15:31.164Z,27.63
2023-07-24T09:18:00.124Z,25.53
2023-07-24T09:20:39.624Z,26.57
2023-07-24T09:25:41.608Z,24.83
2023-07-24T09:28:14.149Z,27.97
2023-07-24T09:30:53.696Z,29.87
2023-07-24T09:33:22.743Z,25.80
2023-07-24T09:36:02.575Z,27.03
2023-07-24T09:38:31.340Z,27.63
2023-07-24T09:41:00.181Z,25.90
2023-07-24T09:43:40.004Z,26.77
2023-07-24T09:46:12.089Z,28.07
2023-07-24T09:48:43.894Z,27.07
2023-07-24T09:51:33.242Z,26.43
2023-07-24T09:54:09.462Z,27.40
2023-07-24T09:56:50.546Z,28.40
2023-07-24T09:59:24.535Z,27.80
2023-07-24T10:01:55.889Z,25.37
2023-07-24T10:04:26.566Z,26.87
2023-07-24T10:06:56.136Z,26.73
2023-07-24T10:09:30.559Z,28.63
2023-07-24T10:12:00.334Z,26.73
2023-07-24T10:14:30.280Z,27.73
2023-07-24T10:17:00.638Z,28.07
2023-07-24T10:19:39.434Z,29.20
2023-07-24T10:22:08.749Z,28.77
2023-07-24T10:24:42.251Z,27.80
2023-07-24T10:27:12.159Z,28.00
2023-07-24T10:29:41.328Z,28.03
2023-07-24T10:32:23.988Z,29.13
2023-07-24T10:35:00.674Z,25.03
2023-07-24T10:37:37.465Z,27.30
2023-07-24T10:40:07.820Z,28.87
2023-07-24T10:42:37.234Z,28.80
2023-07-24T10:45:19.938Z,26.37
2023-07-24T10:47:55.102Z,26.40
2023-07-24T10:50:24.145Z,27.23
2023-07-24T10:52:53.005Z,26.73
2023-07-24T10:55:24.095Z,29.30
2023-07-24T10:57:59.212Z,26.60
2023-07-24T11:00:32.637Z,26.30
2023-07-24T11:03:09.874Z,26.57
2023-07-24T11:44:12.497Z,29.87
2023-07-24T11:46:48.219Z,28.57
2023-07-24T11:49:17.274Z,28.73
2023-07-24T11:51:45.990Z,26.63
2023-07-24T11:54:17.242Z,30.80
2023-07-24T11:56:45.978Z,27.27
2023-07-24T11:59:18.225Z,29.83
2023-07-24T12:01:49.060Z,28.80
2023-07-24T12:04:18.548Z,28.47
2023-07-24T12:06:47.479Z,26.83
2023-07-24T12:09:18.468Z,29.47
2023-07-24T12:11:47.691Z,26.83
2023-07-24T12:14:19.764Z,29.57
2023-07-24T12:16:53.008Z,29.90
2023-07-24T12:19:22.502Z,30.87
2023-07-24T12:21:51.447Z,28.60
2023-07-24T12:24:20.373Z,28.73
2023-07-24T12:26:49.544Z,28.43
2023-07-24T12:29:20.168Z,30.20
2023-07-24T12:31:49.308Z,28.40
2023-07-24T12:34:18.351Z,29.83
2023-07-24T12:36:49.014Z,28.20
2023-07-24T12:39:18.359Z,31.10
2023-07-24T12:41:47.442Z,27.60
2023-07-24T12:44:16.867Z,28.40
2023-07-24T12:46:48.774Z,27.20
2023-07-24T12:49:19.974Z,28.07
2023-07-24T12:51:52.180Z,27.67
2023-07-24T12:54:46.391Z,28.87
2023-07-24T12:57:14.646Z,29.57
2023-07-24T12:59:43.672Z,28.47
2023-07-24T13:02:14.077Z,27.37
2023-07-24T13:04:43.187Z,28.60
2023-07-24T13:07:15.058Z,28.07
2023-07-24T13:10:07.717Z,27.53
2023-07-24T13:12:36.738Z,28.07
2023-07-24T13:15:06.878Z,28.50
2023-07-24T13:17:40.187Z,28.67
2023-07-24T13:20:10.545Z,28.17
2023-07-24T13:22:39.246Z,28.83
2023-07-24T13:25:09.306Z,27.23
2023-07-24T13:27:38.514Z,29.33
2023-07-24T13:30:08.208Z,30.23
2023-07-24T13:32:38.591Z,28.67
2023-07-24T13:35:08.270Z,30.50
2023-07-24T13:37:39.415Z,28.60
2023-07-24T13:40:09.706Z,30.30
2023-07-24T13:42:38.601Z,29.50
2023-07-24T13:45:08.447Z,29.63
2023-07-24T13:47:38.655Z,29.83
2023-07-24T13:50:11.312Z,29.30
2023-07-24T13:52:40.105Z,29.97
2023-07-24T13:55:10.076Z,27.20
2023-07-24T13:57:39.255Z,28.83
2023-07-24T14:00:09.058Z,28.03
2023-07-24T14:02:42.105Z,30.97
2023-07-24T14:05:11.506Z,29.53
2023-07-24T14:07:40.366Z,28.00
2023-07-24T14:10:10.366Z,27.73
2023-07-24T14:12:39.361Z,27.97
2023-07-24T14:15:09.310Z,28.03
2023-07-24T14:17:39.568Z,27.13
2023-07-24T14:20:09.877Z,26.50
2023-07-24T14:22:38.817Z,26.30
2023-07-24T14:25:08.125Z,26.77
2023-07-24T14:27:36.991Z,27.43
2023-07-24T14:30:07.176Z,27.40
2023-07-24T14:32:35.947Z,26.10
2023-07-24T14:35:06.947Z,27.87
2023-07-24T14:37:42.510Z,27.13
2023-07-24T14:40:16.485Z,28.67
2023-07-24T14:42:49.806Z,27.47
2023-07-24T14:45:19.646Z,30.33
2023-07-24T14:47:50.849Z,30.03
2023-07-24T14:50:21.030Z,28.90
2023-07-24T14:52:49.861Z,29.03
2023-07-24T14:55:24.015Z,30.73
2023-07-24T14:57:52.893Z,27.93
2023-07-24T15:00:23.116Z,31.33
2023-07-24T15:02:51.943Z,28.53
2023-07-24T15:05:22.842Z,28.83
2023-07-24T15:07:54.406Z,28.03
2023-07-24T15:10:23.454Z,29.07
2023-07-24T15:12:52.650Z,30.20
2023-07-24T15:15:23.912Z,28.20
2023-07-24T15:17:57.387Z,29.07
2023-07-24T15:20:27.823Z,34.83
2023-07-24T15:22:59.235Z,31.80
2023-07-24T15:25:28.049Z,27.20
2023-07-24T15:27:56.862Z,29.83
2023-07-24T15:30:25.866Z,28.90
2023-07-24T15:32:54.712Z,26.13
2023-07-24T15:35:23.944Z,26.47
2023-07-24T15:37:57.328Z,24.67
2023-07-24T15:40:26.296Z,25.33
2023-07-24T15:42:55.534Z,22.97
2023-07-24T15:45:24.544Z,26.17
2023-07-24T15:47:56.162Z,25.63
2023-07-24T15:50:27.011Z,28.27
2023-07-24T15:52:59.959Z,24.50
2023-07-24T15:55:28.904Z,23.93
2023-07-24T15:58:01.216Z,24.17
2023-07-24T16:00:33.866Z,24.07
2023-07-24T16:03:03.109Z,23.73
2023-07-24T16:05:31.954Z,25.50
2023-07-24T16:08:02.596Z,23.63
2023-07-24T16:10:31.601Z,26.27
2023-07-24T16:13:11.126Z,23.33
2023-07-24T16:18:14.385Z,24.40
2023-07-24T16:20:55.646Z,29.00
2023-07-24T16:23:27.156Z,24.37
2023-07-24T16:26:03.135Z,23.60
2023-07-24T16:28:34.568Z,24.70
2023-07-24T16:31:18.512Z,21.43
2023-07-24T16:33:51.833Z,22.53
2023-07-24T16:36:23.901Z,25.13
2023-07-24T16:38:57.155Z,22.40
2023-07-24T16:41:27.484Z,24.40
2023-07-24T16:44:01.471Z,25.47
2023-07-24T16:46:31.062Z,24.27
2023-07-24T16:48:59.779Z,22.37
2023-07-24T16:51:28.763Z,25.73
2023-07-24T16:53:58.940Z,23.23
2023-07-24T16:56:27.741Z,23.20
2023-07-24T16:58:56.353Z,21.70
2023-07-24T17:01:25.619Z,24.70
2023-07-24T17:03:56.690Z,22.40
2023-07-24T17:06:27.344Z,23.10
2023-07-24T17:08:56.056Z,20.37
2023-07-24T17:11:26.163Z,23.53
2023-07-24T17:13:55.128Z,20.27
2023-07-24T17:16:25.054Z,21.83
2023-07-24T17:18:57.362Z,21.70
2023-07-24T17:21:26.205Z,23.23
2023-07-24T17:23:57.893Z,22.10
2023-07-24T17:26:32.219Z,23.27
2023-07-24T17:29:03.258Z,22.10
2023-07-24T17:31:33.761Z,22.60
2023-07-24T17:34:03.580Z,21.70
2023-07-24T17:36:32.380Z,23.73
2023-07-24T17:39:02.167Z,21.10
2023-07-24T17:41:34.923Z,23.03
2023-07-24T17:44:03.699Z,21.07
2023-07-24T17:46:32.707Z,23.00
2023-07-24T17:49:01.454Z,20.73
2023-07-24T17:51:31.295Z,20.90
2023-07-24T17:54:00.692Z,20.67
2023-07-24T17:56:29.611Z,22.10
2023-07-24T17:58:59.944Z,20.17
2023-07-24T18:01:28.894Z,21.27
2023-07-24T18:03:58.103Z,20.23
2023-07-24T18:06:29.354Z,22.07
2023-07-24T18:09:02.527Z,21.07
2023-07-24T18:11:31.543Z,21.23
2023-07-24T18:14:02.015Z,20.60
2023-07-24T18:16:30.991Z,21.80
2023-07-24T18:18:59.798Z,23.80
2023-07-24T18:21:28.995Z,20.87
2023-07-24T18:23:58.105Z,20.70
2023-07-24T18:26:29.236Z,21.63
2023-07-24T18:28:59.915Z,19.47
2023-07-24T18:31:35.959Z,22.30
2023-07-24T18:34:04.865Z,19.57
2023-07-24T18:36:33.702Z,21.07
2023-07-24T18:39:02.373Z,20.27
2023-07-24T18:41:31.440Z,21.23
2023-07-24T18:44:03.712Z,21.57
2023-07-24T18:46:33.944Z,21.13
2023-07-24T18:49:03.064Z,20.17
2023-07-24T18:51:32.164Z,21.93
2023-07-24T18:54:01.215Z,21.87
2023-07-24T18:56:30.159Z,23.17
2023-07-24T18:58:59.616Z,22.00
2023-07-24T19:01:28.735Z,22.23
2023-07-24T19:03:59.097Z,20.80
2023-07-24T19:06:32.065Z,20.33
2023-07-24T19:09:01.182Z,22.60
2023-07-24T19:11:30.486Z,21.07
2023-07-24T19:16:43.360Z,20.47
2023-07-24T19:19:13.487Z,19.63
2023-07-24T19:21:42.311Z,19.70
2023-07-24T19:24:11.238Z,19.47
2023-07-24T19:26:44.585Z,19.90
2023-07-24T19:29:13.905Z,20.53
2023-07-24T19:31:42.885Z,19.93
2023-07-24T19:34:13.119Z,21.60
2023-07-24T19:36:41.946Z,20.73
2023-07-24T19:39:10.817Z,18.73
2023-07-24T19:41:39.602Z,20.87
2023-07-24T19:44:08.484Z,20.80
2023-07-24T19:46:43.498Z,21.57
2023-07-24T19:49:13.533Z,20.23
2023-07-24T19:51:42.314Z,20.93
2023-07-24T19:54:11.182Z,21.40
2023-07-24T19:56:39.969Z,21.13
2023-07-24T19:59:08.830Z,21.30
2023-07-24T20:01:37.761Z,24.03
2023-07-24T20:04:07.075Z,20.03
2023-07-24T20:06:37.234Z,20.93
2023-07-24T20:09:08.486Z,20.30
2023-07-24T20:11:37.513Z,22.00
2023-07-24T20:14:06.350Z,20.00
2023-07-24T20:16:35.187Z,21.53
2023-07-24T20:19:04.048Z,20.00
2023-07-24T20:21:33.236Z,19.67
2023-07-24T20:24:11.736Z,19.60
2023-07-24T20:26:43.417Z,21.07
2023-07-24T20:29:12.695Z,21.67
2023-07-24T20:31:41.645Z,20.60
2023-07-24T20:34:10.458Z,19.43
2023-07-24T20:36:41.220Z,21.10
2023-07-24T20:39:18.411Z,22.60
2023-07-24T20:41:47.584Z,20.63
2023-07-24T20:44:16.360Z,19.63
2023-07-24T20:46:45.281Z,21.47
2023-07-24T20:49:14.108Z,21.13
2023-07-24T20:51:43.183Z,22.63
2023-07-24T20:54:13.456Z,20.60
2023-07-24T20:56:42.170Z,21.17
2023-07-24T20:59:10.891Z,19.33
2023-07-24T21:01:41.474Z,23.17
2023-07-24T21:04:10.311Z,21.90
2023-07-24T21:06:39.141Z,22.03
2023-07-24T21:09:07.871Z,20.00
2023-07-24T21:11:38.034Z,22.17
2023-07-24T21:14:06.777Z,21.17
2023-07-24T21:16:35.856Z,20.10
2023-07-24T21:19:07.301Z,21.07
2023-07-24T21:21:39.022Z,21.17
2023-07-24T21:24:08.093Z,19.67
2023-07-24T21:26:41.599Z,21.23
2023-07-24T21:29:18.962Z,18.97
2023-07-24T21:31:47.702Z,19.73
2023-07-24T21:34:16.506Z,19.70
2023-07-24T21:36:45.413Z,19.33
2023-07-24T21:39:14.120Z,20.33
2023-07-24T21:41:44.555Z,19.47
2023-07-24T21:44:15.450Z,18.33
2023-07-24T21:46:44.319Z,18.60
2023-07-24T21:49:13.154Z,20.10
2023-07-24T21:51:47.608Z,22.43
2023-07-24T21:54:16.269Z,20.33
2023-07-24T21:56:46.333Z,22.23
2023-07-24T21:59:15.622Z,20.57
2023-07-24T22:01:44.407Z,21.10
2023-07-24T22:04:13.185Z,21.07
2023-07-24T22:06:41.911Z,20.27
2023-07-24T22:09:10.681Z,20.80
2023-07-24T22:11:39.444Z,21.73
2023-07-24T22:14:09.646Z,20.47
2023-07-24T22:16:38.480Z,20.17
2023-07-24T22:19:10.276Z,18.97
2023-07-24T22:21:39.195Z,21.63
2023-07-24T22:24:07.909Z,17.73
2023-07-24T22:26:36.539Z,19.50
2023-07-24T22:29:05.300Z,18.57
2023-07-24T22:31:35.412Z,24.90
2023-07-24T22:34:04.060Z,19.80
2023-07-24T22:36:32.757Z,21.13
2023-07-24T22:39:05.949Z,17.47
2023-07-24T22:41:34.773Z,18.07
2023-07-24T22:44:03.590Z,18.43
2023-07-24T22:46:32.644Z,19.00
2023-07-24T22:49:03.010Z,18.00
2023-07-24T22:51:33.753Z,18.70
2023-07-24T22:54:03.568Z,19.57
2023-07-24T22:56:32.268Z,20.40
2023-07-24T22:59:20.822Z,19.53
2023-07-24T23:01:50.261Z,18.40
2023-07-24T23:04:22.745Z,18.03
2023-07-24T23:06:52.073Z,18.40
2023-07-24T23:09:20.877Z,18.70
2023-07-24T23:11:49.651Z,18.37
2023-07-24T23:14:18.422Z,18.47
2023-07-24T23:16:47.230Z,19.47
2023-07-24T23:19:16.150Z,18.73
2023-07-24T23:21:46.242Z,21.40
2023-07-24T23:24:14.936Z,20.63
2023-07-24T23:26:43.738Z,19.43
2023-07-24T23:29:12.548Z,19.43
2023-07-24T23:31:41.536Z,20.30
2023-07-24T23:34:10.210Z,19.53
2023-07-24T23:36:38.903Z,18.33
2023-07-24T23:39:09.137Z,19.27
2023-07-24T23:41:38.226Z,21.23
2023-07-24T23:44:06.961Z,17.20
2023-07-24T23:46:35.670Z,21.23
2023-07-24T23:49:04.497Z,18.27
2023-07-24T23:51:33.427Z,20.57
2023-07-24T23:54:02.344Z,20.60
2023-07-24T23:56:32.475Z,22.90
2023-07-24T23:59:02.224Z,17.10
